sensor_id;sensor_type;location;lat;lon;timestamp;pressure;altitude;pressure_sealevel;temperature;humidity
68366;BME280;55283;51.466;5.478;2023-05-09T00:02:01;101632.28;;;23.72;45.86
68366;BME280;55283;51.466;5.478;2023-05-09T00:04:27;101624.59;;;23.73;46.15
68366;BME280;55283;51.466;5.478;2023-05-09T00:06:53;101617.84;;;23.70;46.11
68366;BME280;55283;51.466;5.478;2023-05-09T00:09:18;101618.63;;;23.71;46.06
68366;BME280;55283;51.466;5.478;2023-05-09T00:11:44;101615.81;;;23.71;46.11
68366;BME280;55283;51.466;5.478;2023-05-09T00:14:09;101617.53;;;23.68;46.02
68366;BME280;55283;51.466;5.478;2023-05-09T00:16:36;101609.50;;;23.67;46.09
68366;BME280;55283;51.466;5.478;2023-05-09T00:19:02;101604.22;;;23.69;45.88
68366;BME280;55283;51.466;5.478;2023-05-09T00:21:28;101605.00;;;23.69;46.01
68366;BME280;55283;51.466;5.478;2023-05-09T00:23:54;101603.78;;;23.70;45.94
68366;BME280;55283;51.466;5.478;2023-05-09T00:26:20;101599.28;;;23.73;45.79
68366;BME280;55283;51.466;5.478;2023-05-09T00:28:46;101591.28;;;23.71;45.96
68366;BME280;55283;51.466;5.478;2023-05-09T00:31:12;101596.91;;;23.71;45.75
68366;BME280;55283;51.466;5.478;2023-05-09T00:33:38;101594.44;;;23.73;45.77
68366;BME280;55283;51.466;5.478;2023-05-09T00:36:03;101586.88;;;23.70;45.87
68366;BME280;55283;51.466;5.478;2023-05-09T00:38:29;101586.34;;;23.76;45.64
68366;BME280;55283;51.466;5.478;2023-05-09T00:40:54;101573.16;;;23.72;45.50
68366;BME280;55283;51.466;5.478;2023-05-09T00:43:20;101577.53;;;23.73;45.82
68366;BME280;55283;51.466;5.478;2023-05-09T00:45:46;101580.47;;;23.70;45.88
68366;BME280;55283;51.466;5.478;2023-05-09T00:48:13;101578.66;;;23.76;45.72
68366;BME280;55283;51.466;5.478;2023-05-09T00:50:39;101573.03;;;23.76;45.67
68366;BME280;55283;51.466;5.478;2023-05-09T00:53:04;101587.91;;;23.77;45.67
68366;BME280;55283;51.466;5.478;2023-05-09T00:55:30;101578.66;;;23.76;45.62
68366;BME280;55283;51.466;5.478;2023-05-09T00:57:56;101565.16;;;23.71;45.77
68366;BME280;55283;51.466;5.478;2023-05-09T01:00:21;101568.31;;;23.73;45.76
68366;BME280;55283;51.466;5.478;2023-05-09T01:02:50;101562.31;;;23.71;46.03
68366;BME280;55283;51.466;5.478;2023-05-09T01:05:17;101549.06;;;23.71;45.74
68366;BME280;55283;51.466;5.478;2023-05-09T01:08:06;101545.00;;;23.72;45.71
68366;BME280;55283;51.466;5.478;2023-05-09T01:10:41;101554.34;;;23.69;45.72
68366;BME280;55283;51.466;5.478;2023-05-09T01:15:51;101541.53;;;23.68;45.75
68366;BME280;55283;51.466;5.478;2023-05-09T01:18:32;101533.88;;;23.69;45.93
68366;BME280;55283;51.466;5.478;2023-05-09T01:21:13;101531.84;;;23.69;45.74
68366;BME280;55283;51.466;5.478;2023-05-09T01:31:40;101518.19;;;23.68;45.99
68366;BME280;55283;51.466;5.478;2023-05-09T01:34:08;101511.78;;;23.67;45.75
68366;BME280;55283;51.466;5.478;2023-05-09T01:36:37;101509.06;;;23.64;45.43
68366;BME280;55283;51.466;5.478;2023-05-09T01:39:05;101507.84;;;23.65;45.84
68366;BME280;55283;51.466;5.478;2023-05-09T01:41:30;101504.22;;;23.64;45.79
68366;BME280;55283;51.466;5.478;2023-05-09T01:44:01;101495.78;;;23.64;45.79
68366;BME280;55283;51.466;5.478;2023-05-09T01:46:28;101502.19;;;23.65;45.61
68366;BME280;55283;51.466;5.478;2023-05-09T01:48:55;101494.22;;;23.63;45.59
68366;BME280;55283;51.466;5.478;2023-05-09T01:51:21;101497.03;;;23.63;45.84
68366;BME280;55283;51.466;5.478;2023-05-09T01:53:50;101497.38;;;23.65;45.68
68366;BME280;55283;51.466;5.478;2023-05-09T01:56:17;101503.00;;;23.65;45.68
68366;BME280;55283;51.466;5.478;2023-05-09T01:58:45;101493.31;;;23.66;45.81
68366;BME280;55283;51.466;5.478;2023-05-09T02:01:12;101481.03;;;23.60;45.65
68366;BME280;55283;51.466;5.478;2023-05-09T02:03:39;101491.28;;;23.67;45.77
68366;BME280;55283;51.466;5.478;2023-05-09T02:06:06;101494.09;;;23.67;45.88
68366;BME280;55283;51.466;5.478;2023-05-09T02:08:32;101478.56;;;23.62;45.76
68366;BME280;55283;51.466;5.478;2023-05-09T02:10:57;101488.94;;;23.65;45.69
68366;BME280;55283;51.466;5.478;2023-05-09T02:13:23;101486.56;;;23.64;45.87
68366;BME280;55283;51.466;5.478;2023-05-09T02:15:49;101477.00;;;23.61;45.59
68366;BME280;55283;51.466;5.478;2023-05-09T02:18:14;101478.13;;;23.64;45.65
68366;BME280;55283;51.466;5.478;2023-05-09T02:20:41;101481.72;;;23.64;45.61
68366;BME280;55283;51.466;5.478;2023-05-09T02:23:07;101477.00;;;23.61;45.76
68366;BME280;55283;51.466;5.478;2023-05-09T02:25:33;101486.56;;;23.64;45.74
68366;BME280;55283;51.466;5.478;2023-05-09T02:27:58;101484.19;;;23.62;45.71
68366;BME280;55283;51.466;5.478;2023-05-09T02:30:25;101486.56;;;23.64;45.77
68366;BME280;55283;51.466;5.478;2023-05-09T02:32:56;101482.19;;;23.63;45.60
68366;BME280;55283;51.466;5.478;2023-05-09T02:35:25;101479.03;;;23.61;45.72
68366;BME280;55283;51.466;5.478;2023-05-09T02:37:52;101476.63;;;23.59;45.62
68366;BME280;55283;51.466;5.478;2023-05-09T02:40:18;101492.31;;;23.60;45.72
68366;BME280;55283;51.466;5.478;2023-05-09T02:42:45;101485.06;;;23.59;45.75
68366;BME280;55283;51.466;5.478;2023-05-09T02:45:10;101486.22;;;23.62;45.70
68366;BME280;55283;51.466;5.478;2023-05-09T02:47:36;101479.81;;;23.61;45.72
68366;BME280;55283;51.466;5.478;2023-05-09T02:50:03;101472.91;;;23.62;45.60
68366;BME280;55283;51.466;5.478;2023-05-09T02:52:28;101467.75;;;23.61;45.83
68366;BME280;55283;51.466;5.478;2023-05-09T02:54:54;101472.50;;;23.64;45.63
68366;BME280;55283;51.466;5.478;2023-05-09T02:57:19;101464.47;;;23.62;45.73
68366;BME280;55283;51.466;5.478;2023-05-09T02:59:45;101456.03;;;23.62;45.52
68366;BME280;55283;51.466;5.478;2023-05-09T03:02:10;101448.84;;;23.61;45.45
68366;BME280;55283;51.466;5.478;2023-05-09T03:04:36;101463.25;;;23.63;45.64
68366;BME280;55283;51.466;5.478;2023-05-09T03:07:02;101451.22;;;23.63;45.56
68366;BME280;55283;51.466;5.478;2023-05-09T03:09:27;101450.41;;;23.62;45.73
68366;BME280;55283;51.466;5.478;2023-05-09T03:11:53;101445.69;;;23.59;45.64
68366;BME280;55283;51.466;5.478;2023-05-09T03:14:19;101442.78;;;23.63;45.47
68366;BME280;55283;51.466;5.478;2023-05-09T03:16:44;101441.53;;;23.64;45.58
68366;BME280;55283;51.466;5.478;2023-05-09T03:19:10;101441.19;;;23.62;45.62
68366;BME280;55283;51.466;5.478;2023-05-09T03:21:35;101429.94;;;23.62;45.45
68366;BME280;55283;51.466;5.478;2023-05-09T03:24:01;101438.72;;;23.64;45.63
68366;BME280;55283;51.466;5.478;2023-05-09T03:26:28;101434.00;;;23.61;45.90
68366;BME280;55283;51.466;5.478;2023-05-09T03:28:53;101438.84;;;23.60;45.73
68366;BME280;55283;51.466;5.478;2023-05-09T03:31:20;101433.19;;;23.60;45.63
68366;BME280;55283;51.466;5.478;2023-05-09T03:33:45;101435.22;;;23.60;45.55
68366;BME280;55283;51.466;5.478;2023-05-09T03:36:11;101430.72;;;23.62;45.45
68366;BME280;55283;51.466;5.478;2023-05-09T03:38:36;101430.50;;;23.57;45.62
68366;BME280;55283;51.466;5.478;2023-05-09T03:41:02;101429.50;;;23.63;45.49
68366;BME280;55283;51.466;5.478;2023-05-09T03:43:28;101421.47;;;23.62;45.45
68366;BME280;55283;51.466;5.478;2023-05-09T03:45:53;101429.13;;;23.61;45.46
68366;BME280;55283;51.466;5.478;2023-05-09T03:48:19;101424.28;;;23.62;45.50
68366;BME280;55283;51.466;5.478;2023-05-09T03:50:44;101419.44;;;23.62;45.53
68366;BME280;55283;51.466;5.478;2023-05-09T03:53:10;101427.13;;;23.62;45.46
68366;BME280;55283;51.466;5.478;2023-05-09T03:55:35;101426.69;;;23.63;45.46
68366;BME280;55283;51.466;5.478;2023-05-09T03:58:02;101415.41;;;23.63;45.21
68366;BME280;55283;51.466;5.478;2023-05-09T04:00:27;101416.97;;;23.64;45.46
68366;BME280;55283;51.466;5.478;2023-05-09T04:02:53;101411.34;;;23.64;45.38
68366;BME280;55283;51.466;5.478;2023-05-09T04:05:18;101415.06;;;23.61;45.48
68366;BME280;55283;51.466;5.478;2023-05-09T04:07:44;101411.00;;;23.62;45.46
68366;BME280;55283;51.466;5.478;2023-05-09T04:10:10;101393.81;;;23.60;45.33
68366;BME280;55283;51.466;5.478;2023-05-09T04:12:36;101397.41;;;23.61;45.41
68366;BME280;55283;51.466;5.478;2023-05-09T04:15:01;101393.81;;;23.60;45.40
68366;BME280;55283;51.466;5.478;2023-05-09T04:17:26;101388.19;;;23.60;45.60
68366;BME280;55283;51.466;5.478;2023-05-09T04:19:52;101374.66;;;23.55;45.48
68366;BME280;55283;51.466;5.478;2023-05-09T04:22:17;101379.50;;;23.55;45.62
68366;BME280;55283;51.466;5.478;2023-05-09T04:24:43;101387.41;;;23.60;45.36
68366;BME280;55283;51.466;5.478;2023-05-09T04:27:08;101389.06;;;23.57;45.56
68366;BME280;55283;51.466;5.478;2023-05-09T04:29:33;101381.53;;;23.54;45.54
68366;BME280;55283;51.466;5.478;2023-05-09T04:32:00;101389.41;;;23.59;45.60
68366;BME280;55283;51.466;5.478;2023-05-09T04:34:26;101388.50;;;23.62;45.56
68366;BME280;55283;51.466;5.478;2023-05-09T04:36:52;101381.41;;;23.58;45.59
68366;BME280;55283;51.466;5.478;2023-05-09T04:39:18;101378.94;;;23.60;45.62
68366;BME280;55283;51.466;5.478;2023-05-09T04:41:44;101376.91;;;23.60;45.89
68366;BME280;55283;51.466;5.478;2023-05-09T04:44:14;101386.16;;;23.61;45.95
68366;BME280;55283;51.466;5.478;2023-05-09T04:46:40;101368.59;;;23.57;46.70
68366;BME280;55283;51.466;5.478;2023-05-09T04:49:06;101373.19;;;23.63;46.97
68366;BME280;55283;51.466;5.478;2023-05-09T04:51:31;101352.25;;;23.64;46.17
68366;BME280;55283;51.466;5.478;2023-05-09T04:53:57;101363.16;;;23.62;46.29
68366;BME280;55283;51.466;5.478;2023-05-09T04:56:23;101358.34;;;23.63;46.44
68366;BME280;55283;51.466;5.478;2023-05-09T04:58:48;101363.63;;;23.61;46.35
68366;BME280;55283;51.466;5.478;2023-05-09T05:01:14;101343.28;;;23.57;46.14
68366;BME280;55283;51.466;5.478;2023-05-09T05:03:40;101356.75;;;23.62;46.15
68366;BME280;55283;51.466;5.478;2023-05-09T05:06:06;101348.66;;;23.64;46.27
68366;BME280;55283;51.466;5.478;2023-05-09T05:08:31;101349.00;;;23.66;45.97
68366;BME280;55283;51.466;5.478;2023-05-09T05:10:57;101333.69;;;23.67;45.99
68366;BME280;55283;51.466;5.478;2023-05-09T05:13:22;101319.84;;;23.60;45.80
68366;BME280;55283;51.466;5.478;2023-05-09T05:15:48;101327.69;;;23.65;45.62
68366;BME280;55283;51.466;5.478;2023-05-09T05:18:14;101324.56;;;23.63;45.77
68366;BME280;55283;51.466;5.478;2023-05-09T05:20:40;101317.00;;;23.72;45.58
68366;BME280;55283;51.466;5.478;2023-05-09T05:23:07;101314.63;;;23.71;45.56
68366;BME280;55283;51.466;5.478;2023-05-09T05:25:32;101318.81;;;23.66;45.61
68366;BME280;55283;51.466;5.478;2023-05-09T05:27:58;101318.13;;;23.62;45.85
68366;BME280;55283;51.466;5.478;2023-05-09T05:30:23;101316.44;;;23.65;45.59
68366;BME280;55283;51.466;5.478;2023-05-09T05:32:49;101309.69;;;23.62;45.84
68366;BME280;55283;51.466;5.478;2023-05-09T05:35:14;101316.56;;;23.61;45.83
68366;BME280;55283;51.466;5.478;2023-05-09T05:37:41;101313.75;;;23.61;46.11
68366;BME280;55283;51.466;5.478;2023-05-09T05:40:07;101303.41;;;23.58;46.26
68366;BME280;55283;51.466;5.478;2023-05-09T05:42:33;101306.56;;;23.60;46.37
68366;BME280;55283;51.466;5.478;2023-05-09T05:44:59;101302.16;;;23.59;46.04
68366;BME280;55283;51.466;5.478;2023-05-09T05:47:34;101291.16;;;23.52;46.14
68366;BME280;55283;51.466;5.478;2023-05-09T05:50:01;101298.25;;;23.57;46.28
68366;BME280;55283;51.466;5.478;2023-05-09T05:52:27;101296.22;;;23.57;46.11
68366;BME280;55283;51.466;5.478;2023-05-09T05:54:53;101292.94;;;23.59;46.05
68366;BME280;55283;51.466;5.478;2023-05-09T05:57:18;101291.03;;;23.56;46.29
68366;BME280;55283;51.466;5.478;2023-05-09T05:59:48;101276.50;;;23.57;46.14
68366;BME280;55283;51.466;5.478;2023-05-09T06:02:14;101286.19;;;23.56;46.32
68366;BME280;55283;51.466;5.478;2023-05-09T06:04:40;101291.59;;;23.63;46.88
68366;BME280;55283;51.466;5.478;2023-05-09T06:07:05;101287.19;;;23.62;46.99
68366;BME280;55283;51.466;5.478;2023-05-09T06:09:31;101275.91;;;23.62;46.46
68366;BME280;55283;51.466;5.478;2023-05-09T06:11:57;101275.59;;;23.60;46.69
68366;BME280;55283;51.466;5.478;2023-05-09T06:14:22;101271.66;;;23.58;47.02
68366;BME280;55283;51.466;5.478;2023-05-09T06:16:48;101265.91;;;23.61;46.73
68366;BME280;55283;51.466;5.478;2023-05-09T06:19:13;101266.81;;;23.58;46.84
68366;BME280;55283;51.466;5.478;2023-05-09T06:21:39;101263.09;;;23.61;46.69
68366;BME280;55283;51.466;5.478;2023-05-09T06:24:04;101267.94;;;23.61;46.41
68366;BME280;55283;51.466;5.478;2023-05-09T06:26:30;101269.06;;;23.63;46.88
68366;BME280;55283;51.466;5.478;2023-05-09T06:28:55;101261.84;;;23.62;46.72
68366;BME280;55283;51.466;5.478;2023-05-09T06:31:21;101260.16;;;23.65;46.75
68366;BME280;55283;51.466;5.478;2023-05-09T06:33:46;101259.38;;;23.64;46.53
68366;BME280;55283;51.466;5.478;2023-05-09T06:36:12;101266.03;;;23.58;45.80
68366;BME280;55283;51.466;5.478;2023-05-09T06:38:37;101268.63;;;23.52;45.44
68366;BME280;55283;51.466;5.478;2023-05-09T06:41:03;101257.63;;;23.45;45.30
68366;BME280;55283;51.466;5.478;2023-05-09T06:43:28;101249.63;;;23.43;44.28
68366;BME280;55283;51.466;5.478;2023-05-09T06:45:54;101244.44;;;23.42;45.04
68366;BME280;55283;51.466;5.478;2023-05-09T06:48:19;101243.22;;;23.43;43.96
68366;BME280;55283;51.466;5.478;2023-05-09T06:50:45;101242.66;;;23.35;43.92
68366;BME280;55283;51.466;5.478;2023-05-09T06:53:10;101232.53;;;23.38;43.83
68366;BME280;55283;51.466;5.478;2023-05-09T06:55:36;101243.19;;;23.30;43.62
68366;BME280;55283;51.466;5.478;2023-05-09T06:58:02;101234.09;;;23.26;44.08
68366;BME280;55283;51.466;5.478;2023-05-09T07:00:27;101244.56;;;23.25;44.18
68366;BME280;55283;51.466;5.478;2023-05-09T07:02:53;101238.03;;;23.28;44.00
68366;BME280;55283;51.466;5.478;2023-05-09T07:05:18;101234.88;;;23.26;44.32
68366;BME280;55283;51.466;5.478;2023-05-09T07:07:43;101220.69;;;23.30;43.84
68366;BME280;55283;51.466;5.478;2023-05-09T07:10:09;101232.41;;;23.28;43.77
68366;BME280;55283;51.466;5.478;2023-05-09T07:12:34;101223.50;;;23.30;43.52
68366;BME280;55283;51.466;5.478;2023-05-09T07:15:00;101225.88;;;23.32;43.73
68366;BME280;55283;51.466;5.478;2023-05-09T07:17:25;101216.19;;;23.33;43.89
68366;BME280;55283;51.466;5.478;2023-05-09T07:19:51;101213.84;;;23.31;43.56
68366;BME280;55283;51.466;5.478;2023-05-09T07:22:16;101207.22;;;23.38;43.47
68366;BME280;55283;51.466;5.478;2023-05-09T07:24:42;101208.22;;;23.31;42.77
68366;BME280;55283;51.466;5.478;2023-05-09T07:27:08;101213.50;;;23.29;42.79
68366;BME280;55283;51.466;5.478;2023-05-09T07:29:34;101216.44;;;23.25;42.76
68366;BME280;55283;51.466;5.478;2023-05-09T07:31:59;101212.38;;;23.26;42.17
68366;BME280;55283;51.466;5.478;2023-05-09T07:34:25;101210.59;;;23.20;41.91
68366;BME280;55283;51.466;5.478;2023-05-09T07:36:50;101210.03;;;23.12;41.99
68366;BME280;55283;51.466;5.478;2023-05-09T07:39:16;101218.94;;;23.11;42.38
68366;BME280;55283;51.466;5.478;2023-05-09T07:41:41;101220.63;;;23.08;42.34
68366;BME280;55283;51.466;5.478;2023-05-09T07:44:07;101214.00;;;23.02;42.26
68366;BME280;55283;51.466;5.478;2023-05-09T07:46:34;101216.69;;;23.05;42.54
68366;BME280;55283;51.466;5.478;2023-05-09T07:49:01;101203.75;;;23.08;42.78
68366;BME280;55283;51.466;5.478;2023-05-09T07:51:26;101204.28;;;23.16;42.75
68366;BME280;55283;51.466;5.478;2023-05-09T07:53:52;101206.53;;;23.21;43.08
68366;BME280;55283;51.466;5.478;2023-05-09T07:56:19;101197.31;;;23.20;43.04
68366;BME280;55283;51.466;5.478;2023-05-09T07:58:45;101189.53;;;23.24;43.30
68366;BME280;55283;51.466;5.478;2023-05-09T08:01:10;101183.47;;;23.26;43.27
68366;BME280;55283;51.466;5.478;2023-05-09T08:03:36;101183.81;;;23.28;43.54
68366;BME280;55283;51.466;5.478;2023-05-09T08:06:01;101187.41;;;23.28;43.15
68366;BME280;55283;51.466;5.478;2023-05-09T08:08:26;101185.38;;;23.29;43.23
68366;BME280;55283;51.466;5.478;2023-05-09T08:10:52;101175.94;;;23.36;43.26
68366;BME280;55283;51.466;5.478;2023-05-09T08:13:17;101167.84;;;23.38;43.54
68366;BME280;55283;51.466;5.478;2023-05-09T08:15:43;101159.16;;;23.32;43.54
68366;BME280;55283;51.466;5.478;2023-05-09T08:18:09;101161.56;;;23.34;43.61
68366;BME280;55283;51.466;5.478;2023-05-09T08:20:34;101154.31;;;23.33;43.62
68366;BME280;55283;51.466;5.478;2023-05-09T08:23:00;101160.19;;;23.38;43.61
68366;BME280;55283;51.466;5.478;2023-05-09T08:25:25;101142.19;;;23.36;43.72
68366;BME280;55283;51.466;5.478;2023-05-09T08:27:51;101153.84;;;23.47;43.52
68366;BME280;55283;51.466;5.478;2023-05-09T08:30:16;101144.50;;;23.50;43.46
68366;BME280;55283;51.466;5.478;2023-05-09T08:32:42;101152.03;;;23.53;43.47
68366;BME280;55283;51.466;5.478;2023-05-09T08:35:07;101141.44;;;23.57;43.32
68366;BME280;55283;51.466;5.478;2023-05-09T08:37:37;101137.03;;;23.56;43.49
68366;BME280;55283;51.466;5.478;2023-05-09T08:40:03;101137.97;;;23.53;43.64
68366;BME280;55283;51.466;5.478;2023-05-09T08:42:32;101133.44;;;23.56;43.52
68366;BME280;55283;51.466;5.478;2023-05-09T08:44:59;101141.75;;;23.59;43.42
68366;BME280;55283;51.466;5.478;2023-05-09T08:47:26;101134.22;;;23.56;43.41
68366;BME280;55283;51.466;5.478;2023-05-09T08:49:52;101134.84;;;23.51;43.77
68366;BME280;55283;51.466;5.478;2023-05-09T08:52:19;101143.28;;;23.51;43.76
68366;BME280;55283;51.466;5.478;2023-05-09T08:54:45;101132.81;;;23.52;43.83
68366;BME280;55283;51.466;5.478;2023-05-09T08:57:11;101126.25;;;23.55;43.82
68366;BME280;55283;51.466;5.478;2023-05-09T08:59:39;101126.69;;;23.53;43.82
68366;BME280;55283;51.466;5.478;2023-05-09T09:02:05;101122.75;;;23.50;43.79
68366;BME280;55283;51.466;5.478;2023-05-09T09:04:31;101124.03;;;23.49;43.99
68366;BME280;55283;51.466;5.478;2023-05-09T09:06:58;101117.47;;;23.53;43.98
68366;BME280;55283;51.466;5.478;2023-05-09T09:09:24;101129.66;;;23.49;44.28
68366;BME280;55283;51.466;5.478;2023-05-09T09:11:50;101127.31;;;23.48;44.12
68366;BME280;55283;51.466;5.478;2023-05-09T09:14:23;101114.94;;;23.45;44.23
68366;BME280;55283;51.466;5.478;2023-05-09T09:16:51;101118.19;;;23.44;44.25
68366;BME280;55283;51.466;5.478;2023-05-09T09:19:19;101120.22;;;23.43;44.37
68366;BME280;55283;51.466;5.478;2023-05-09T09:21:45;101116.16;;;23.44;44.37
68366;BME280;55283;51.466;5.478;2023-05-09T09:24:12;101125.41;;;23.45;44.50
68366;BME280;55283;51.466;5.478;2023-05-09T09:26:56;101118.97;;;23.44;44.41
68366;BME280;55283;51.466;5.478;2023-05-09T09:29:21;101113.25;;;23.48;44.19
68366;BME280;55283;51.466;5.478;2023-05-09T09:31:51;101111.50;;;23.50;44.15
68366;BME280;55283;51.466;5.478;2023-05-09T09:34:21;101107.63;;;23.48;44.30
68366;BME280;55283;51.466;5.478;2023-05-09T09:36:47;101107.13;;;23.49;44.18
68366;BME280;55283;51.466;5.478;2023-05-09T09:39:13;101098.34;;;23.47;44.31
68366;BME280;55283;51.466;5.478;2023-05-09T09:41:40;101095.44;;;23.51;44.35
68366;BME280;55283;51.466;5.478;2023-05-09T09:46:48;101094.53;;;23.54;44.27
68366;BME280;55283;51.466;5.478;2023-05-09T09:49:19;101100.16;;;23.54;44.25
68366;BME280;55283;51.466;5.478;2023-05-09T09:51:52;101089.47;;;23.49;44.31
68366;BME280;55283;51.466;5.478;2023-05-09T09:54:18;101086.66;;;23.49;44.43
68366;BME280;55283;51.466;5.478;2023-05-09T09:56:48;101085.53;;;23.46;44.38
68366;BME280;55283;51.466;5.478;2023-05-09T09:59:15;101084.97;;;23.52;44.33
68366;BME280;55283;51.466;5.478;2023-05-09T10:02:03;101085.75;;;23.52;44.52
68366;BME280;55283;51.466;5.478;2023-05-09T10:04:34;101087.44;;;23.49;44.54
68366;BME280;55283;51.466;5.478;2023-05-09T10:07:02;101086.19;;;23.50;44.53
68366;BME280;55283;51.466;5.478;2023-05-09T10:09:29;101072.94;;;23.51;44.57
68366;BME280;55283;51.466;5.478;2023-05-09T10:11:55;101074.63;;;23.48;44.74
68366;BME280;55283;51.466;5.478;2023-05-09T10:14:25;101080.56;;;23.50;44.94
68366;BME280;55283;51.466;5.478;2023-05-09T10:16:55;101078.56;;;23.51;44.86
68366;BME280;55283;51.466;5.478;2023-05-09T10:19:22;101074.50;;;23.52;44.86
68366;BME280;55283;51.466;5.478;2023-05-09T10:21:54;101067.59;;;23.53;44.72
68366;BME280;55283;51.466;5.478;2023-05-09T10:24:29;101076.25;;;23.59;44.72
68366;BME280;55283;51.466;5.478;2023-05-09T10:27:02;101072.53;;;23.62;44.51
68366;BME280;55283;51.466;5.478;2023-05-09T10:29:39;101066.16;;;23.70;44.58
68366;BME280;55283;51.466;5.478;2023-05-09T10:32:17;101062.72;;;23.66;45.23
68366;BME280;55283;51.466;5.478;2023-05-09T10:34:51;101053.59;;;23.62;45.24
68366;BME280;55283;51.466;5.478;2023-05-09T10:37:17;101050.16;;;23.58;45.59
68366;BME280;55283;51.466;5.478;2023-05-09T10:39:44;101056.25;;;23.57;45.81
68366;BME280;55283;51.466;5.478;2023-05-09T10:42:11;101044.38;;;23.62;45.84
68366;BME280;55283;51.466;5.478;2023-05-09T10:44:38;101045.97;;;23.63;45.90
68366;BME280;55283;51.466;5.478;2023-05-09T10:47:03;101033.75;;;23.57;45.79
68366;BME280;55283;51.466;5.478;2023-05-09T10:49:30;101038.13;;;23.58;45.69
68366;BME280;55283;51.466;5.478;2023-05-09T10:51:56;101035.16;;;23.61;45.85
68366;BME280;55283;51.466;5.478;2023-05-09T10:54:29;101035.94;;;23.62;45.54
68366;BME280;55283;51.466;5.478;2023-05-09T10:56:58;101028.28;;;23.62;45.38
68366;BME280;55283;51.466;5.478;2023-05-09T10:59:41;101030.00;;;23.60;45.52
68366;BME280;55283;51.466;5.478;2023-05-09T11:02:13;101027.63;;;23.58;45.40
68366;BME280;55283;51.466;5.478;2023-05-09T11:04:40;101031.09;;;23.62;45.60
68366;BME280;55283;51.466;5.478;2023-05-09T11:07:22;101030.78;;;23.60;45.65
68366;BME280;55283;51.466;5.478;2023-05-09T11:10:08;101027.06;;;23.63;45.50
68366;BME280;55283;51.466;5.478;2023-05-09T11:12:34;101023.13;;;23.61;45.61
68366;BME280;55283;51.466;5.478;2023-05-09T11:15:17;101020.75;;;23.59;45.67
68366;BME280;55283;51.466;5.478;2023-05-09T11:17:43;101012.00;;;23.57;45.51
68366;BME280;55283;51.466;5.478;2023-05-09T11:20:08;101009.19;;;23.57;45.49
68366;BME280;55283;51.466;5.478;2023-05-09T11:22:42;101013.72;;;23.55;45.64
68366;BME280;55283;51.466;5.478;2023-05-09T11:25:10;101009.19;;;23.57;45.72
68366;BME280;55283;51.466;5.478;2023-05-09T11:27:46;101000.28;;;23.59;45.53
68366;BME280;55283;51.466;5.478;2023-05-09T11:30:18;100999.16;;;23.56;45.61
68366;BME280;55283;51.466;5.478;2023-05-09T11:32:53;100996.03;;;23.54;45.70
68366;BME280;55283;51.466;5.478;2023-05-09T11:35:22;101003.56;;;23.57;45.51
68366;BME280;55283;51.466;5.478;2023-05-09T11:40:15;100995.72;;;23.52;45.39
68366;BME280;55283;51.466;5.478;2023-05-09T11:42:44;100989.59;;;23.54;45.50
68366;BME280;55283;51.466;5.478;2023-05-09T11:45:13;100986.69;;;23.57;45.44
68366;BME280;55283;51.466;5.478;2023-05-09T11:47:39;100982.91;;;23.51;45.72
68366;BME280;55283;51.466;5.478;2023-05-09T11:50:08;101000.75;;;23.57;45.66
68366;BME280;55283;51.466;5.478;2023-05-09T11:52:36;100973.06;;;23.56;45.58
68366;BME280;55283;51.466;5.478;2023-05-09T11:55:22;100967.91;;;23.54;45.48
68366;BME280;55283;51.466;5.478;2023-05-09T11:57:51;100974.66;;;23.57;45.38
68366;BME280;55283;51.466;5.478;2023-05-09T12:00:17;100971.03;;;23.56;45.63
68366;BME280;55283;51.466;5.478;2023-05-09T12:02:44;100971.50;;;23.55;45.43
68366;BME280;55283;51.466;5.478;2023-05-09T12:05:17;100973.06;;;23.56;45.50
68366;BME280;55283;51.466;5.478;2023-05-09T12:07:43;100966.50;;;23.59;45.55
68366;BME280;55283;51.466;5.478;2023-05-09T12:10:14;100970.09;;;23.59;45.30
68366;BME280;55283;51.466;5.478;2023-05-09T12:12:48;100967.63;;;23.61;45.31
68366;BME280;55283;51.466;5.478;2023-05-09T12:15:15;100962.00;;;23.61;45.41
68366;BME280;55283;51.466;5.478;2023-05-09T12:17:42;100971.69;;;23.60;45.40
68366;BME280;55283;51.466;5.478;2023-05-09T12:20:08;100965.91;;;23.64;45.25
68366;BME280;55283;51.466;5.478;2023-05-09T12:22:35;100967.97;;;23.63;45.18
68366;BME280;55283;51.466;5.478;2023-05-09T12:25:05;100966.25;;;23.66;45.19
68366;BME280;55283;51.466;5.478;2023-05-09T12:27:32;100959.50;;;23.63;45.23
68366;BME280;55283;51.466;5.478;2023-05-09T12:30:03;100957.03;;;23.65;45.12
68366;BME280;55283;51.466;5.478;2023-05-09T12:32:33;100949.38;;;23.66;45.12
68366;BME280;55283;51.466;5.478;2023-05-09T12:35:00;100947.47;;;23.63;45.30
68366;BME280;55283;51.466;5.478;2023-05-09T12:37:29;100946.66;;;23.62;45.33
68366;BME280;55283;51.466;5.478;2023-05-09T12:40:03;100943.75;;;23.66;45.05
68366;BME280;55283;51.466;5.478;2023-05-09T12:42:30;100939.34;;;23.65;45.30
68366;BME280;55283;51.466;5.478;2023-05-09T12:44:57;100941.38;;;23.64;45.32
68366;BME280;55283;51.466;5.478;2023-05-09T12:47:27;100941.84;;;23.63;45.25
68366;BME280;55283;51.466;5.478;2023-05-09T12:49:59;100932.16;;;23.64;45.23
68366;BME280;55283;51.466;5.478;2023-05-09T12:52:32;100926.34;;;23.58;45.19
68366;BME280;55283;51.466;5.478;2023-05-09T12:55:07;100929.16;;;23.58;45.24
68366;BME280;55283;51.466;5.478;2023-05-09T12:57:33;100916.97;;;23.61;45.37
68366;BME280;55283;51.466;5.478;2023-05-09T13:00:00;100914.63;;;23.60;45.28
68366;BME280;55283;51.466;5.478;2023-05-09T13:02:26;100927.13;;;23.59;45.22
68366;BME280;55283;51.466;5.478;2023-05-09T13:05:12;100925.75;;;23.63;45.33
68366;BME280;55283;51.466;5.478;2023-05-09T13:07:45;100915.41;;;23.60;45.52